Virginia Trader — 9HA3823 — position and weather

sailwx.info

Track history (hours):
 
Tides and Currents Weather Stations Pressure Air Temp Water Temp Dewpoint Dewpoint Depression Visibility Wind Speed Wind Dir Waves Ship Positions

Virginia Trader

Last reported at 2018-Jun-20 15:44 UTC. Time now 2018-Jun-23 17:28 UTC.
Position N 10°21' W 075°42'.

Length 211 m; draft 10.2 m.

Type: Ship (hazmat cat A). MMSI: 256116000.

Date/timePositionNaut miles runAvg speedWind from/ knotsBaromVisibWave heightAir tempDewpointWater temp
2018-Jun-20 15:44N 10°21' W 075°42'315.1
2018-Jun-20 15:31N 10°20' W 075°38'510.1
2018-Jun-20 15:00N 10°19' W 075°33'4 7.8
2018-Jun-20 14:30N 10°23' W 075°31'0 0.0
2018-Jun-20 13:56N 10°23' W 075°31'0 0.0
2018-Jun-20 13:17N 10°23' W 075°31'0 0.0
2018-Jun-20 12:59N 10°23' W 075°31'0 0.0
2018-Jun-20 12:29N 10°23' W 075°31'0 0.0
2018-Jun-20 11:59N 10°23' W 075°31'0 0.0
2018-Jun-20 11:29N 10°23' W 075°31'0 0.0
2018-Jun-20 10:59N 10°23' W 075°31'0 0.0
2018-Jun-20 10:29N 10°23' W 075°31'0 0.0
2018-Jun-20 09:59N 10°23' W 075°31'0 0.0
2018-Jun-20 09:29N 10°23' W 075°31'0 0.0
2018-Jun-20 08:59N 10°23' W 075°31'0 0.0
2018-Jun-20 08:29N 10°23' W 075°31'0 0.0
2018-Jun-20 07:59N 10°23' W 075°31'0 0.0
2018-Jun-20 07:29N 10°23' W 075°31'0 0.0
2018-Jun-20 06:59N 10°23' W 075°31'0 0.0
2018-Jun-20 06:29N 10°23' W 075°31'0 0.0
2018-Jun-20 05:59N 10°23' W 075°31'0 0.0
2018-Jun-20 05:29N 10°23' W 075°31'0 0.0
2018-Jun-20 04:59N 10°23' W 075°31'0 0.0
2018-Jun-20 04:29N 10°23' W 075°31'0 0.0
2018-Jun-20 03:59N 10°23' W 075°31'0 0.0
2018-Jun-20 03:30N 10°23' W 075°31'1 1.9
2018-Jun-20 03:00N 10°22' W 075°31'3 6.7
2018-Jun-20 02:30N 10°19' W 075°33'5 9.2
2018-Jun-20 02:00N 10°19' W 075°38'3 5.2
2018-Jun-20 01:30N 10°19' W 075°41'6 4.4
2018-Jun-20 00:01N 10°18' W 075°47'0 3.1
2018-Jun-20 00:00N 10°18' W 075°47'4 6.9
2018-Jun-19 23:30N 10°17' W 075°51'4 8.8
2018-Jun-19 23:00N 10°16' W 075°55'23810.4
2018-Jun-19 00:07N 09°29' W 079°52'112.0
2018-Jun-19 00:00N 09°27' W 079°52'510.5
2018-Jun-18 23:30N 09°23' W 079°54'1 1.3
2018-Jun-18 22:55N 09°22' W 079°53'0 0.0
2018-Jun-18 22:28N 09°22' W 079°53'0 0.0
2018-Jun-18 21:58N 09°22' W 079°53'0 0.0
2018-Jun-18 21:28N 09°22' W 079°53'0 0.0
2018-Jun-18 20:58N 09°22' W 079°53'0 0.0
2018-Jun-18 20:28N 09°22' W 079°53'0 0.0
2018-Jun-18 19:58N 09°22' W 079°53'0 0.0
2018-Jun-18 19:28N 09°22' W 079°53'0 0.0
2018-Jun-18 18:58N 09°22' W 079°53'0 0.0
2018-Jun-18 18:28N 09°22' W 079°53'0 0.0
2018-Jun-18 17:58N 09°22' W 079°53'0 0.0
2018-Jun-18 17:28N 09°22' W 079°53'0 0.0
2018-Jun-18 16:58N 09°22' W 079°53'0 0.0
2018-Jun-18 16:28N 09°22' W 079°53'0 0.0
2018-Jun-18 15:58N 09°22' W 079°53'0 0.0
2018-Jun-18 15:28N 09°22' W 079°53'0 0.0
2018-Jun-18 14:58N 09°22' W 079°53'0 0.0
2018-Jun-18 14:28N 09°22' W 079°53'0 0.0
2018-Jun-18 13:58N 09°22' W 079°53'0 0.7
2018-Jun-18 13:30N 09°22' W 079°53'3 6.7
2018-Jun-18 13:00N 09°25' W 079°54'1 1.0
2018-Jun-18 12:30N 09°26' W 079°54'0 0.1
2018-Jun-18 11:58N 09°26' W 079°54'0 0.2
2018-Jun-18 11:30N 09°26' W 079°54'2 4.5
2018-Jun-18 11:01N 09°27' W 079°52'0 0.2
2018-Jun-18 09:32N 09°27' W 079°52'0 0.1
2018-Jun-18 09:20N 09°27' W 079°52'0 0.1
2018-Jun-18 08:38N 09°27' W 079°52'0 0.1
2018-Jun-18 08:20N 09°27' W 079°52'0 0.0
2018-Jun-18 07:50N 09°27' W 079°52'0 0.0
2018-Jun-18 07:29N 09°27' W 079°52'0 0.1
2018-Jun-18 06:56N 09°27' W 079°52'0 0.0
2018-Jun-18 06:29N 09°27' W 079°52'0 0.0
2018-Jun-18 05:59N 09°27' W 079°52'0 0.0
2018-Jun-18 05:29N 09°27' W 079°52'0 0.0
2018-Jun-18 02:56N 09°27' W 079°52'0 0.0
2018-Jun-18 02:29N 09°27' W 079°52'0 0.0
2018-Jun-18 01:59N 09°27' W 079°52'0 0.0
2018-Jun-18 01:29N 09°27' W 079°52'0 0.0
2018-Jun-18 00:59N 09°27' W 079°52'0 0.0
2018-Jun-18 00:20N 09°27' W 079°52'0 0.1
2018-Jun-17 23:59N 09°27' W 079°52'0 0.0
2018-Jun-17 23:29N 09°27' W 079°52'0 0.0
2018-Jun-17 22:59N 09°27' W 079°52'0 0.0
2018-Jun-17 22:26N 09°27' W 079°52'0 0.0
2018-Jun-17 21:59N 09°27' W 079°52'0 0.0
2018-Jun-17 21:29N 09°27' W 079°52'0 0.0
2018-Jun-17 21:00N 09°27' W 079°52'2 4.7
2018-Jun-17 20:30N 09°27' W 079°54'3 5.5
2018-Jun-17 19:55N 09°29' W 079°56'  
2018-Jun-10 21:39N 22°05' W 091°56'  
Track history (hours):
 
Tides and Currents Weather Stations Pressure Air Temp Water Temp Dewpoint Dewpoint Depression Visibility Wind Speed Wind Dir Waves Ship Positions

Virginia Trader

Last reported at 2018-Jun-20 15:44 UTC. Time now 2018-Jun-23 17:28 UTC.
Position N 10°21' W 075°42'.

Length 211 m; draft 10.2 m.

Type: Ship (hazmat cat A). MMSI: 256116000.

Date/timePositionNaut miles runAvg speedWind from/ knotsBaromVisibWave heightAir tempDewpointWater temp
2018-Jun-20 15:44N 10°21' W 075°42'315.1
2018-Jun-20 15:31N 10°20' W 075°38'510.1
2018-Jun-20 15:00N 10°19' W 075°33'4 7.8
2018-Jun-20 14:30N 10°23' W 075°31'0 0.0
2018-Jun-20 13:56N 10°23' W 075°31'0 0.0
2018-Jun-20 13:17N 10°23' W 075°31'0 0.0
2018-Jun-20 12:59N 10°23' W 075°31'0 0.0
2018-Jun-20 12:29N 10°23' W 075°31'0 0.0
2018-Jun-20 11:59N 10°23' W 075°31'0 0.0
2018-Jun-20 11:29N 10°23' W 075°31'0 0.0
2018-Jun-20 10:59N 10°23' W 075°31'0 0.0
2018-Jun-20 10:29N 10°23' W 075°31'0 0.0
2018-Jun-20 09:59N 10°23' W 075°31'0 0.0
2018-Jun-20 09:29N 10°23' W 075°31'0 0.0
2018-Jun-20 08:59N 10°23' W 075°31'0 0.0
2018-Jun-20 08:29N 10°23' W 075°31'0 0.0
2018-Jun-20 07:59N 10°23' W 075°31'0 0.0
2018-Jun-20 07:29N 10°23' W 075°31'0 0.0
2018-Jun-20 06:59N 10°23' W 075°31'0 0.0
2018-Jun-20 06:29N 10°23' W 075°31'0 0.0
2018-Jun-20 05:59N 10°23' W 075°31'0 0.0
2018-Jun-20 05:29N 10°23' W 075°31'0 0.0
2018-Jun-20 04:59N 10°23' W 075°31'0 0.0
2018-Jun-20 04:29N 10°23' W 075°31'0 0.0
2018-Jun-20 03:59N 10°23' W 075°31'0 0.0
2018-Jun-20 03:30N 10°23' W 075°31'1 1.9
2018-Jun-20 03:00N 10°22' W 075°31'3 6.7
2018-Jun-20 02:30N 10°19' W 075°33'5 9.2
2018-Jun-20 02:00N 10°19' W 075°38'3 5.2
2018-Jun-20 01:30N 10°19' W 075°41'6 4.4
2018-Jun-20 00:01N 10°18' W 075°47'0 3.1
2018-Jun-20 00:00N 10°18' W 075°47'4 6.9
2018-Jun-19 23:30N 10°17' W 075°51'4 8.8
2018-Jun-19 23:00N 10°16' W 075°55'23810.4
2018-Jun-19 00:07N 09°29' W 079°52'112.0
2018-Jun-19 00:00N 09°27' W 079°52'510.5
2018-Jun-18 23:30N 09°23' W 079°54'1 1.3
2018-Jun-18 22:55N 09°22' W 079°53'0 0.0
2018-Jun-18 22:28N 09°22' W 079°53'0 0.0
2018-Jun-18 21:58N 09°22' W 079°53'0 0.0
2018-Jun-18 21:28N 09°22' W 079°53'0 0.0
2018-Jun-18 20:58N 09°22' W 079°53'0 0.0
2018-Jun-18 20:28N 09°22' W 079°53'0 0.0
2018-Jun-18 19:58N 09°22' W 079°53'0 0.0
2018-Jun-18 19:28N 09°22' W 079°53'0 0.0
2018-Jun-18 18:58N 09°22' W 079°53'0 0.0
2018-Jun-18 18:28N 09°22' W 079°53'0 0.0
2018-Jun-18 17:58N 09°22' W 079°53'0 0.0
2018-Jun-18 17:28N 09°22' W 079°53'0 0.0
2018-Jun-18 16:58N 09°22' W 079°53'0 0.0
2018-Jun-18 16:28N 09°22' W 079°53'0 0.0
2018-Jun-18 15:58N 09°22' W 079°53'0 0.0
2018-Jun-18 15:28N 09°22' W 079°53'0 0.0
2018-Jun-18 14:58N 09°22' W 079°53'0 0.0
2018-Jun-18 14:28N 09°22' W 079°53'0 0.0
2018-Jun-18 13:58N 09°22' W 079°53'0 0.7
2018-Jun-18 13:30N 09°22' W 079°53'3 6.7
2018-Jun-18 13:00N 09°25' W 079°54'1 1.0
2018-Jun-18 12:30N 09°26' W 079°54'0 0.1
2018-Jun-18 11:58N 09°26' W 079°54'0 0.2
2018-Jun-18 11:30N 09°26' W 079°54'2 4.5
2018-Jun-18 11:01N 09°27' W 079°52'0 0.2
2018-Jun-18 09:32N 09°27' W 079°52'0 0.1
2018-Jun-18 09:20N 09°27' W 079°52'0 0.1
2018-Jun-18 08:38N 09°27' W 079°52'0 0.1
2018-Jun-18 08:20N 09°27' W 079°52'0 0.0
2018-Jun-18 07:50N 09°27' W 079°52'0 0.0
2018-Jun-18 07:29N 09°27' W 079°52'0 0.1
2018-Jun-18 06:56N 09°27' W 079°52'0 0.0
2018-Jun-18 06:29N 09°27' W 079°52'0 0.0
2018-Jun-18 05:59N 09°27' W 079°52'0 0.0
2018-Jun-18 05:29N 09°27' W 079°52'0 0.0
2018-Jun-18 02:56N 09°27' W 079°52'0 0.0
2018-Jun-18 02:29N 09°27' W 079°52'0 0.0
2018-Jun-18 01:59N 09°27' W 079°52'0 0.0
2018-Jun-18 01:29N 09°27' W 079°52'0 0.0
2018-Jun-18 00:59N 09°27' W 079°52'0 0.0
2018-Jun-18 00:20N 09°27' W 079°52'0 0.1
2018-Jun-17 23:59N 09°27' W 079°52'0 0.0
2018-Jun-17 23:29N 09°27' W 079°52'0 0.0
2018-Jun-17 22:59N 09°27' W 079°52'0 0.0
2018-Jun-17 22:26N 09°27' W 079°52'0 0.0
2018-Jun-17 21:59N 09°27' W 079°52'0 0.0
2018-Jun-17 21:29N 09°27' W 079°52'0 0.0
2018-Jun-17 21:00N 09°27' W 079°52'2 4.7
2018-Jun-17 20:30N 09°27' W 079°54'3 5.5
2018-Jun-17 19:55N 09°29' W 079°56'  
2018-Jun-10 21:39N 22°05' W 091°56'  

Dump ship's entire track history